Bear Creek, WI

6:39 PM CST on December 02, 2016 (GMT -0600)
Clintonville Municipal | | Change Station

Elev 823 ft 44.62 °N, 88.73 °W | Updated 4 minutes ago

Overcast
Overcast
34 °F
Feels Like 28 °F
N
7
Wind Variable Wind from West

Today
High -- | Low -- °F
--% Chance of Precip.
Yesterday
High -- | Low -- °F
Precip. -- in
Pressure 30.24 in
Visibility 10.0 miles
Clouds Overcast 2800 ft
Windchill 28 °F
Dew Point 27 °F
Humidity 75%
Rainfall 0.00 in
Snow Depth Not available.
7:13 AM 4:15 PM
Waxing Crescent, 11% visible
METAR KCLI 030035Z AUTO 27006KT 10SM OVC028 01/M03 A3024 RMK AO2
Pressure 30.24 in
Visibility 10.0 miles
Clouds Overcast 2800 ft
Windchill 28 °F
Dew Point 27 °F
Humidity 75%
Rainfall 0.00 in
Snow Depth Not available.
7:13 AM 4:15 PM
Waxing Crescent, 11% visible
METAR KCLI 030035Z AUTO 27006KT 10SM OVC028 01/M03 A3024 RMK AO2

10-Day Weather Forecast

Almanac

Astronomy

Dec. 02, 2016 Rise Set
Actual Time
Civil Twilight
Nautical Twilight
Astronomical Twilight
Moon
Length of Visible Light
Length of Day
Tomorrow will be .
, % of the Moon is Illuminated

Today's Extremes

State Highs State Lows

Community

WunderPhotos

Upload Photos

1,955,381 photos uploaded!

WunderBlog® & News

Nearby

Air Quality

  Air Quality AQ Index Pollutant
Not available.

Snow Depth

Station Depth Elevation

Earthquake Activity

City Distance Mag. Time & Date
Minimum magnitude displayed is 2.5.

Coastal Water Temperatures

Place Temperature

Stations

Nearby Weather Stations

Station Location Temp. Windchill Dew Point Humidity Wind Precip. Elev Updated Type
                   

Watches & Warnings

There are currently no watches in effect.